createdAt,value
2022-10-12T00:01:10.270Z,14.52
2022-10-12T00:03:37.418Z,14.52
2022-10-12T00:06:09.136Z,14.52
2022-10-12T00:08:39.235Z,14.52
2022-10-12T00:11:08.365Z,14.51
2022-10-12T00:13:35.542Z,14.51
2022-10-12T00:16:04.811Z,14.47
2022-10-12T00:18:31.749Z,14.44
2022-10-12T00:21:08.288Z,14.42
2022-10-12T00:23:37.163Z,14.40
2022-10-12T00:26:07.270Z,14.39
2022-10-12T00:28:35.352Z,14.36
2022-10-12T00:31:08.043Z,14.37
2022-10-12T00:33:35.017Z,14.32
2022-10-12T00:36:16.617Z,14.29
2022-10-12T00:38:44.233Z,14.31
2022-10-12T00:41:12.786Z,14.33
2022-10-12T00:43:43.103Z,14.31
2022-10-12T00:46:18.447Z,14.31
2022-10-12T00:48:50.306Z,14.31
2022-10-12T00:51:21.886Z,14.31
2022-10-12T00:53:56.705Z,14.27
2022-10-12T00:56:30.397Z,14.24
2022-10-12T00:59:03.790Z,14.11
2022-10-12T01:01:35.263Z,14.04
2022-10-12T01:04:05.627Z,14.03
2022-10-12T01:06:35.467Z,13.98
2022-10-12T01:09:03.743Z,13.93
2022-10-12T01:11:30.615Z,13.85
2022-10-12T01:13:58.120Z,13.78
2022-10-12T01:16:37.504Z,13.78
2022-10-12T01:19:25.712Z,13.77
2022-10-12T01:22:01.995Z,13.78
2022-10-12T01:24:49.585Z,13.76
2022-10-12T01:27:45.970Z,13.70
2022-10-12T01:30:25.541Z,13.68
2022-10-12T01:33:10.695Z,13.66
2022-10-12T01:35:49.806Z,13.62
2022-10-12T01:38:45.478Z,13.59
2022-10-12T01:41:20.106Z,13.60
2022-10-12T01:43:47.217Z,13.46
2022-10-12T01:46:41.994Z,13.46
2022-10-12T01:49:10.432Z,13.47
2022-10-12T01:51:52.972Z,13.53
2022-10-12T01:54:37.346Z,13.51
2022-10-12T01:57:17.076Z,13.41
2022-10-12T01:59:59.793Z,13.41
2022-10-12T02:02:37.196Z,13.38
2022-10-12T02:05:15.311Z,13.29
2022-10-12T02:07:52.808Z,13.27
2022-10-12T02:10:27.252Z,13.29
2022-10-12T02:12:59.175Z,13.28
2022-10-12T02:15:29.171Z,13.28
2022-10-12T02:17:58.255Z,13.17
2022-10-12T02:20:27.685Z,13.11
2022-10-12T02:23:16.867Z,13.09
2022-10-12T02:25:47.160Z,13.01
2022-10-12T02:28:18.809Z,13.01
2022-10-12T02:30:54.073Z,12.92
2022-10-12T02:33:32.671Z,12.91
2022-10-12T02:36:09.221Z,12.90
2022-10-12T02:38:45.872Z,12.90
2022-10-12T02:41:21.225Z,12.88
2022-10-12T02:43:57.613Z,12.74
2022-10-12T02:46:28.604Z,12.75
2022-10-12T02:48:59.787Z,12.75
2022-10-12T02:51:29.788Z,12.78
2022-10-12T02:53:57.439Z,12.75
2022-10-12T02:56:24.455Z,12.75
2022-10-12T02:58:51.483Z,12.72
2022-10-12T03:01:18.690Z,12.63
2022-10-12T03:03:45.953Z,12.61
2022-10-12T03:06:14.398Z,12.60
2022-10-12T03:08:41.199Z,12.66
2022-10-12T03:11:12.554Z,12.70
2022-10-12T03:13:39.627Z,12.74
2022-10-12T03:16:09.411Z,12.77
2022-10-12T03:18:37.310Z,12.78
2022-10-12T03:21:04.594Z,12.79
2022-10-12T03:23:33.278Z,12.78
2022-10-12T03:26:00.340Z,12.75
2022-10-12T03:28:27.412Z,12.77
2022-10-12T03:30:54.870Z,12.76
2022-10-12T03:33:22.225Z,12.74
2022-10-12T03:35:49.699Z,12.74
2022-10-12T03:38:18.195Z,12.75
2022-10-12T03:40:47.186Z,12.74
2022-10-12T03:43:14.365Z,12.72
2022-10-12T03:45:41.181Z,12.68
2022-10-12T03:48:08.196Z,12.67
2022-10-12T03:50:35.993Z,12.70
2022-10-12T03:53:05.790Z,12.74
2022-10-12T03:55:33.538Z,12.74
2022-10-12T03:58:01.715Z,12.73
2022-10-12T04:00:28.688Z,12.72
2022-10-12T04:02:55.508Z,-140.58
2022-10-12T04:05:22.599Z,-140.58
2022-10-12T04:07:49.989Z,-140.58
2022-10-12T04:10:16.977Z,-140.58
2022-10-12T04:12:43.843Z,-140.58
2022-10-12T04:15:15.495Z,-140.58
2022-10-12T04:17:42.577Z,-140.58
2022-10-12T04:20:12.254Z,-140.58
2022-10-12T04:22:39.942Z,-140.58
2022-10-12T04:25:10.995Z,-140.58
2022-10-12T04:27:38.846Z,-140.58
2022-10-12T04:30:07.974Z,-140.58
2022-10-12T04:32:36.393Z,-140.58
2022-10-12T04:35:04.284Z,-140.58
2022-10-12T04:45:58.904Z,-140.58
2022-10-12T04:48:28.112Z,-140.58
2022-10-12T04:50:55.662Z,-140.58
2022-10-12T04:53:29.217Z,-140.58
2022-10-12T04:55:56.555Z,-140.58
2022-10-12T04:58:23.927Z,-140.58
2022-10-12T05:00:51.778Z,-140.58
2022-10-12T05:03:18.815Z,-140.58
2022-10-12T05:05:47.422Z,-140.58
2022-10-12T05:08:14.847Z,-140.58
2022-10-12T05:10:47.168Z,-140.58
2022-10-12T05:13:14.462Z,-140.58
2022-10-12T05:15:43.119Z,-140.58
2022-10-12T05:18:10.730Z,-140.58
2022-10-12T05:20:38.250Z,-140.58
2022-10-12T05:23:10.929Z,-140.58
2022-10-12T05:25:40.831Z,-140.58
2022-10-12T05:28:07.726Z,-140.58
2022-10-12T05:30:34.796Z,-140.58
2022-10-12T05:33:03.787Z,-140.58
2022-10-12T05:35:31.693Z,-140.58
2022-10-12T05:37:59.666Z,-140.58
2022-10-12T05:40:27.864Z,-140.58
2022-10-12T05:42:54.848Z,-140.58
2022-10-12T05:45:21.662Z,-140.58
2022-10-12T05:47:48.504Z,-140.58
2022-10-12T05:50:16.146Z,-140.58
2022-10-12T05:52:47.305Z,-140.58
2022-10-12T05:55:17.505Z,-140.58
2022-10-12T05:57:50.967Z,-140.58
2022-10-12T06:00:19.360Z,-140.58
2022-10-12T06:02:46.259Z,-140.58
2022-10-12T06:05:13.392Z,-140.58
2022-10-12T06:07:40.268Z,-140.58
2022-10-12T06:10:08.470Z,-140.58
2022-10-12T06:12:35.675Z,-140.58
2022-10-12T06:15:05.239Z,-140.58
2022-10-12T06:17:32.264Z,-140.58
2022-10-12T06:20:05.008Z,-140.58
2022-10-12T06:22:32.104Z,-140.58
2022-10-12T06:24:59.212Z,-140.58
2022-10-12T06:27:26.329Z,-140.58
2022-10-12T06:29:53.175Z,-140.58
2022-10-12T06:32:21.388Z,-140.58
2022-10-12T06:34:48.636Z,-140.58
2022-10-12T06:37:44.359Z,-140.58
2022-10-12T06:40:05.826Z,-140.58
2022-10-12T06:42:32.805Z,-140.58
2022-10-12T06:45:15.286Z,-140.58
2022-10-12T06:47:55.505Z,-140.58
2022-10-12T06:50:23.164Z,-140.58
2022-10-12T06:52:50.054Z,-140.58
2022-10-12T06:55:17.368Z,-140.58
2022-10-12T06:57:44.454Z,-140.58
2022-10-12T07:00:14.503Z,-140.58
2022-10-12T07:02:43.631Z,-140.58
2022-10-12T07:05:16.274Z,-140.58
2022-10-12T07:07:44.726Z,-140.58
2022-10-12T07:10:11.584Z,-140.58
2022-10-12T07:12:40.033Z,-140.58
2022-10-12T07:15:17.107Z,-140.58
2022-10-12T07:17:44.381Z,-140.58
2022-10-12T07:20:13.233Z,-140.58
2022-10-12T07:22:40.853Z,-140.58
2022-10-12T07:25:08.983Z,-140.58
2022-10-12T07:27:36.319Z,-140.58
2022-10-12T07:30:06.177Z,-140.58
2022-10-12T07:32:33.497Z,-140.58
2022-10-12T07:35:00.485Z,-140.58
2022-10-12T07:37:29.706Z,-140.58
2022-10-12T07:39:57.442Z,-140.58
2022-10-12T07:42:24.926Z,-140.58
2022-10-12T07:44:55.461Z,-140.58
2022-10-12T07:47:24.637Z,-140.58
2022-10-12T07:50:06.124Z,-140.58
2022-10-12T07:52:34.415Z,-140.58
2022-10-12T07:55:01.232Z,-140.58
2022-10-12T07:57:28.147Z,-140.58
2022-10-12T08:00:20.912Z,-140.58
2022-10-12T08:02:47.824Z,-140.58
2022-10-12T08:05:16.929Z,-140.58
2022-10-12T08:07:45.534Z,-140.58
2022-10-12T08:10:12.388Z,-140.58
2022-10-12T08:12:39.607Z,-140.58
2022-10-12T08:15:08.102Z,-140.58
2022-10-12T08:17:35.384Z,-140.58
2022-10-12T08:20:07.516Z,-140.58
2022-10-12T08:22:34.708Z,-140.58
2022-10-12T08:25:02.944Z,-140.58
2022-10-12T08:27:30.729Z,-140.58
2022-10-12T08:29:57.851Z,-140.58
2022-10-12T08:32:24.779Z,-140.58
2022-10-12T08:34:51.558Z,-140.58
2022-10-12T08:37:19.043Z,-140.58
2022-10-12T08:39:52.119Z,-140.58
2022-10-12T08:42:45.311Z,-140.58
2022-10-12T08:45:41.701Z,-140.58
2022-10-12T08:48:18.665Z,-140.58
2022-10-12T08:51:30.705Z,-140.58
2022-10-12T08:54:03.595Z,-140.58
2022-10-12T08:56:30.963Z,-140.58
2022-10-12T09:00:00.265Z,-140.58
2022-10-12T09:03:04.743Z,-140.58
2022-10-12T09:05:41.371Z,-140.58
2022-10-12T09:09:05.320Z,-140.58
2022-10-12T09:12:01.754Z,-140.58
2022-10-12T09:14:38.037Z,-140.58
2022-10-12T09:17:34.738Z,-140.58
2022-10-12T09:20:18.163Z,-140.58
2022-10-12T09:26:39.273Z,-140.58
2022-10-12T09:29:32.817Z,-140.58
2022-10-12T09:36:21.999Z,-140.58
2022-10-12T09:39:05.700Z,-140.58
2022-10-12T09:41:39.599Z,-140.58
2022-10-12T09:44:16.580Z,-140.58
2022-10-12T09:47:26.092Z,-140.58
2022-10-12T09:55:05.415Z,-140.58
2022-10-12T09:58:07.678Z,-140.58
2022-10-12T10:01:15.377Z,-140.58
2022-10-12T10:03:46.047Z,-140.58
2022-10-12T10:06:14.781Z,-140.58
2022-10-12T10:08:48.853Z,-140.58
2022-10-12T10:11:25.961Z,-140.58
2022-10-12T10:13:55.247Z,-140.58
2022-10-12T10:16:53.961Z,-140.58
2022-10-12T10:19:28.086Z,-140.58
2022-10-12T10:22:14.031Z,-140.58
2022-10-12T10:25:54.174Z,-140.58
2022-10-12T10:28:38.907Z,-140.58
2022-10-12T10:31:18.258Z,-140.58
2022-10-12T10:35:02.806Z,-140.58
2022-10-12T10:41:51.346Z,-140.58
2022-10-12T10:49:03.422Z,-140.58
2022-10-12T10:51:46.509Z,-140.58
2022-10-12T10:54:24.506Z,-140.58
